White Raven — WDH7263 — position and weather

sailwx.info

Track history (hours):
 
Tides and Currents Weather Stations Pressure Air Temp Water Temp Dewpoint Dewpoint Depression Visibility Wind Speed Wind Dir Waves Ship Positions

White Raven

Owner: Antles, Rickard D, Olympia, WA. More information available from US FCC via Universal Licensing System and Coast Guard Vessel Documentation Center.

Last reported at 2017-Sep-28 19:42 UTC. Time now 2017-Nov-18 15:29 UTC.
Position N 32°43' W 117°11'.
Warning: this ship's position is 50 days out of date.

Length 13 m.

Type: Sailing vessel. MMSI: 367646460.

Date/timePositionNaut miles runAvg speedWind from/ knotsBaromVisibWave heightAir tempDewpointWater temp
2017-Sep-28 19:42N 32°43' W 117°11'2 7.0
2017-Sep-28 19:29N 32°43' W 117°13'3 6.5
2017-Sep-28 19:01N 32°40' W 117°14'2 4.7
2017-Sep-28 18:31N 32°39' W 117°16'4 7.4
2017-Sep-28 18:01N 32°43' W 117°17'3 6.4
2017-Sep-28 17:30N 32°46' W 117°15'0 0.2
2017-Sep-28 16:14N 32°46' W 117°15'0 0.2
2017-Sep-28 15:59N 32°46' W 117°15'0 0.0
2017-Sep-28 15:29N 32°46' W 117°15'0 0.0
2017-Sep-28 14:59N 32°46' W 117°15'0 0.0
2017-Sep-28 14:29N 32°46' W 117°15'0 0.0
2017-Sep-28 13:53N 32°46' W 117°15'0 0.0
2017-Sep-28 13:29N 32°46' W 117°15'0 0.0
2017-Sep-28 12:59N 32°46' W 117°15'0 0.0
2017-Sep-28 12:29N 32°46' W 117°15'0 0.0
2017-Sep-28 11:59N 32°46' W 117°15'0 0.0
2017-Sep-28 11:29N 32°46' W 117°15'0 0.0
2017-Sep-28 10:59N 32°46' W 117°15'0 0.0
2017-Sep-28 10:26N 32°46' W 117°15'0 0.0
2017-Sep-28 09:59N 32°46' W 117°15'0 0.0
2017-Sep-28 09:29N 32°46' W 117°15'0 0.0
2017-Sep-28 08:53N 32°46' W 117°15'0 0.0
2017-Sep-28 08:29N 32°46' W 117°15'0 0.0
2017-Sep-28 07:59N 32°46' W 117°15'0 0.0
2017-Sep-28 07:29N 32°46' W 117°15'0 0.0
2017-Sep-28 06:59N 32°46' W 117°15'0 0.0
2017-Sep-28 06:29N 32°46' W 117°15'0 0.1
2017-Sep-28 05:56N 32°46' W 117°15'0 0.1
2017-Sep-28 05:29N 32°46' W 117°15'0 0.1
2017-Sep-28 04:59N 32°46' W 117°15'0 0.0
2017-Sep-28 04:29N 32°46' W 117°15'0 0.0
2017-Sep-28 03:59N 32°46' W 117°15'0 0.0
2017-Sep-28 03:29N 32°46' W 117°15'0 0.0
2017-Sep-28 02:59N 32°46' W 117°15'0 0.0
2017-Sep-28 02:29N 32°46' W 117°15'0 0.0
2017-Sep-28 01:59N 32°46' W 117°15'0 0.0
2017-Sep-28 01:29N 32°46' W 117°15'0 0.0
2017-Sep-28 00:59N 32°46' W 117°15'0 0.0
2017-Sep-28 00:29N 32°46' W 117°15'0 0.1
2017-Sep-27 23:59N 32°46' W 117°15'0 0.1
2017-Sep-27 23:26N 32°46' W 117°15'0 0.0
2017-Sep-27 22:59N 32°46' W 117°15'0 0.0
2017-Sep-27 22:29N 32°46' W 117°15'2 5.0
2017-Sep-27 22:00N 32°47' W 117°17'4 8.2
2017-Sep-27 21:30N 32°51' W 117°20'4 8.3
2017-Sep-27 21:00N 32°54' W 117°22'4 7.7
2017-Sep-27 20:30N 32°57' W 117°25'4 8.0
2017-Sep-27 20:00N 33°01' W 117°27'4 7.9
2017-Sep-27 19:30N 33°05' W 117°29'4 7.8
2017-Sep-27 19:00N 33°08' W 117°31'4 7.1
2017-Sep-27 18:30N 33°11' W 117°32'4 7.7
2017-Sep-27 18:00N 33°15' W 117°34'4 7.6
2017-Sep-27 17:30N 33°18' W 117°36'4 7.5
2017-Sep-27 17:00N 33°21' W 117°39'4 7.4
2017-Sep-27 16:30N 33°25' W 117°41'3 6.0
2017-Sep-27 16:00N 33°27' W 117°42'0 0.0
2017-Sep-26 21:09N 33°28' W 117°42'0 0.0
2017-Sep-26 21:00N 33°28' W 117°42'0 0.0
2017-Sep-26 20:30N 33°28' W 117°42'0 0.0
2017-Sep-26 19:57N 33°28' W 117°42'0 0.5
2017-Sep-26 19:31N 33°27' W 117°42'0 0.7
2017-Sep-26 18:58N 33°28' W 117°41'0 0.0
2017-Sep-26 18:28N 33°28' W 117°41'0 0.0
2017-Sep-26 17:58N 33°28' W 117°41'0 0.0
2017-Sep-26 17:30N 33°28' W 117°41'0 0.0
2017-Sep-26 17:01N 33°28' W 117°41'0 0.0
2017-Sep-26 16:28N 33°28' W 117°41'0 0.0
2017-Sep-26 15:58N 33°28' W 117°41'0 0.0
2017-Sep-26 15:31N 33°28' W 117°41'0 0.0
2017-Sep-26 15:01N 33°28' W 117°41'0 0.0
2017-Sep-26 14:28N 33°28' W 117°41'0 0.0
2017-Sep-26 13:55N 33°28' W 117°41'0 0.0
2017-Sep-26 13:31N 33°28' W 117°41'0 0.0
2017-Sep-26 12:58N 33°28' W 117°41'0 0.0
2017-Sep-26 12:31N 33°28' W 117°41'0 0.0
2017-Sep-26 12:01N 33°28' W 117°41'0 0.0
2017-Sep-26 11:31N 33°28' W 117°41'0 0.0
2017-Sep-26 10:55N 33°28' W 117°41'0 0.0
2017-Sep-26 10:31N 33°28' W 117°41'0 0.0
2017-Sep-26 10:01N 33°28' W 117°41'0 0.0
2017-Sep-26 09:31N 33°28' W 117°41'0 0.0
2017-Sep-26 08:58N 33°28' W 117°41'0 0.0
2017-Sep-26 08:28N 33°28' W 117°41'0 0.0
2017-Sep-26 08:01N 33°28' W 117°41'0 0.0
2017-Sep-26 07:31N 33°28' W 117°41'0 0.0
2017-Sep-26 07:01N 33°28' W 117°41'0 0.0
2017-Sep-26 06:31N 33°28' W 117°41'0 0.0
2017-Sep-26 05:58N 33°28' W 117°41'0 0.0
2017-Sep-26 05:31N 33°28' W 117°41'0 0.0
2017-Sep-26 04:58N 33°28' W 117°41'0 0.0
2017-Sep-26 04:28N 33°28' W 117°41'0 0.0
2017-Sep-26 03:58N 33°28' W 117°41'0 0.0
2017-Sep-26 03:31N 33°28' W 117°41'0 0.0
2017-Sep-26 02:58N 33°28' W 117°41'0 0.0
2017-Sep-26 02:25N 33°28' W 117°41'0 0.0
2017-Sep-26 02:01N 33°28' W 117°41'0 0.0
2017-Sep-26 01:28N 33°28' W 117°41'0 0.0
2017-Sep-26 00:58N 33°28' W 117°41'0 0.0
2017-Sep-26 00:31N 33°28' W 117°41'0 0.0
2017-Sep-26 00:01N 33°28' W 117°41'0 0.0
2017-Sep-25 23:28N 33°28' W 117°41'0 0.0
2017-Sep-25 23:01N 33°28' W 117°41'0 0.0
2017-Sep-25 22:31N 33°28' W 117°41'0 0.0
2017-Sep-25 21:58N 33°28' W 117°41'0 0.0
2017-Sep-25 21:31N 33°28' W 117°41'0 0.2
2017-Sep-25 20:59N 33°28' W 117°42'1 1.3
2017-Sep-25 20:31N 33°27' W 117°42'4 7.5
2017-Sep-25 20:01N 33°28' W 117°46'4 7.0
2017-Sep-25 19:31N 33°30' W 117°50'4 7.0
2017-Sep-25 19:00N 33°33' W 117°52'3 6.1
2017-Sep-25 18:30N 33°36' W 117°53'  
Track history (hours):
 
Tides and Currents Weather Stations Pressure Air Temp Water Temp Dewpoint Dewpoint Depression Visibility Wind Speed Wind Dir Waves Ship Positions

White Raven

Owner: Antles, Rickard D, Olympia, WA. More information available from US FCC via Universal Licensing System and Coast Guard Vessel Documentation Center.

Last reported at 2017-Sep-28 19:42 UTC. Time now 2017-Nov-18 15:29 UTC.
Position N 32°43' W 117°11'.
Warning: this ship's position is 50 days out of date.

Length 13 m.

Type: Sailing vessel. MMSI: 367646460.

Date/timePositionNaut miles runAvg speedWind from/ knotsBaromVisibWave heightAir tempDewpointWater temp
2017-Sep-28 19:42N 32°43' W 117°11'2 7.0
2017-Sep-28 19:29N 32°43' W 117°13'3 6.5
2017-Sep-28 19:01N 32°40' W 117°14'2 4.7
2017-Sep-28 18:31N 32°39' W 117°16'4 7.4
2017-Sep-28 18:01N 32°43' W 117°17'3 6.4
2017-Sep-28 17:30N 32°46' W 117°15'0 0.2
2017-Sep-28 16:14N 32°46' W 117°15'0 0.2
2017-Sep-28 15:59N 32°46' W 117°15'0 0.0
2017-Sep-28 15:29N 32°46' W 117°15'0 0.0
2017-Sep-28 14:59N 32°46' W 117°15'0 0.0
2017-Sep-28 14:29N 32°46' W 117°15'0 0.0
2017-Sep-28 13:53N 32°46' W 117°15'0 0.0
2017-Sep-28 13:29N 32°46' W 117°15'0 0.0
2017-Sep-28 12:59N 32°46' W 117°15'0 0.0
2017-Sep-28 12:29N 32°46' W 117°15'0 0.0
2017-Sep-28 11:59N 32°46' W 117°15'0 0.0
2017-Sep-28 11:29N 32°46' W 117°15'0 0.0
2017-Sep-28 10:59N 32°46' W 117°15'0 0.0
2017-Sep-28 10:26N 32°46' W 117°15'0 0.0
2017-Sep-28 09:59N 32°46' W 117°15'0 0.0
2017-Sep-28 09:29N 32°46' W 117°15'0 0.0
2017-Sep-28 08:53N 32°46' W 117°15'0 0.0
2017-Sep-28 08:29N 32°46' W 117°15'0 0.0
2017-Sep-28 07:59N 32°46' W 117°15'0 0.0
2017-Sep-28 07:29N 32°46' W 117°15'0 0.0
2017-Sep-28 06:59N 32°46' W 117°15'0 0.0
2017-Sep-28 06:29N 32°46' W 117°15'0 0.1
2017-Sep-28 05:56N 32°46' W 117°15'0 0.1
2017-Sep-28 05:29N 32°46' W 117°15'0 0.1
2017-Sep-28 04:59N 32°46' W 117°15'0 0.0
2017-Sep-28 04:29N 32°46' W 117°15'0 0.0
2017-Sep-28 03:59N 32°46' W 117°15'0 0.0
2017-Sep-28 03:29N 32°46' W 117°15'0 0.0
2017-Sep-28 02:59N 32°46' W 117°15'0 0.0
2017-Sep-28 02:29N 32°46' W 117°15'0 0.0
2017-Sep-28 01:59N 32°46' W 117°15'0 0.0
2017-Sep-28 01:29N 32°46' W 117°15'0 0.0
2017-Sep-28 00:59N 32°46' W 117°15'0 0.0
2017-Sep-28 00:29N 32°46' W 117°15'0 0.1
2017-Sep-27 23:59N 32°46' W 117°15'0 0.1
2017-Sep-27 23:26N 32°46' W 117°15'0 0.0
2017-Sep-27 22:59N 32°46' W 117°15'0 0.0
2017-Sep-27 22:29N 32°46' W 117°15'2 5.0
2017-Sep-27 22:00N 32°47' W 117°17'4 8.2
2017-Sep-27 21:30N 32°51' W 117°20'4 8.3
2017-Sep-27 21:00N 32°54' W 117°22'4 7.7
2017-Sep-27 20:30N 32°57' W 117°25'4 8.0
2017-Sep-27 20:00N 33°01' W 117°27'4 7.9
2017-Sep-27 19:30N 33°05' W 117°29'4 7.8
2017-Sep-27 19:00N 33°08' W 117°31'4 7.1
2017-Sep-27 18:30N 33°11' W 117°32'4 7.7
2017-Sep-27 18:00N 33°15' W 117°34'4 7.6
2017-Sep-27 17:30N 33°18' W 117°36'4 7.5
2017-Sep-27 17:00N 33°21' W 117°39'4 7.4
2017-Sep-27 16:30N 33°25' W 117°41'3 6.0
2017-Sep-27 16:00N 33°27' W 117°42'0 0.0
2017-Sep-26 21:09N 33°28' W 117°42'0 0.0
2017-Sep-26 21:00N 33°28' W 117°42'0 0.0
2017-Sep-26 20:30N 33°28' W 117°42'0 0.0
2017-Sep-26 19:57N 33°28' W 117°42'0 0.5
2017-Sep-26 19:31N 33°27' W 117°42'0 0.7
2017-Sep-26 18:58N 33°28' W 117°41'0 0.0
2017-Sep-26 18:28N 33°28' W 117°41'0 0.0
2017-Sep-26 17:58N 33°28' W 117°41'0 0.0
2017-Sep-26 17:30N 33°28' W 117°41'0 0.0
2017-Sep-26 17:01N 33°28' W 117°41'0 0.0
2017-Sep-26 16:28N 33°28' W 117°41'0 0.0
2017-Sep-26 15:58N 33°28' W 117°41'0 0.0
2017-Sep-26 15:31N 33°28' W 117°41'0 0.0
2017-Sep-26 15:01N 33°28' W 117°41'0 0.0
2017-Sep-26 14:28N 33°28' W 117°41'0 0.0
2017-Sep-26 13:55N 33°28' W 117°41'0 0.0
2017-Sep-26 13:31N 33°28' W 117°41'0 0.0
2017-Sep-26 12:58N 33°28' W 117°41'0 0.0
2017-Sep-26 12:31N 33°28' W 117°41'0 0.0
2017-Sep-26 12:01N 33°28' W 117°41'0 0.0
2017-Sep-26 11:31N 33°28' W 117°41'0 0.0
2017-Sep-26 10:55N 33°28' W 117°41'0 0.0
2017-Sep-26 10:31N 33°28' W 117°41'0 0.0
2017-Sep-26 10:01N 33°28' W 117°41'0 0.0
2017-Sep-26 09:31N 33°28' W 117°41'0 0.0
2017-Sep-26 08:58N 33°28' W 117°41'0 0.0
2017-Sep-26 08:28N 33°28' W 117°41'0 0.0
2017-Sep-26 08:01N 33°28' W 117°41'0 0.0
2017-Sep-26 07:31N 33°28' W 117°41'0 0.0
2017-Sep-26 07:01N 33°28' W 117°41'0 0.0
2017-Sep-26 06:31N 33°28' W 117°41'0 0.0
2017-Sep-26 05:58N 33°28' W 117°41'0 0.0
2017-Sep-26 05:31N 33°28' W 117°41'0 0.0
2017-Sep-26 04:58N 33°28' W 117°41'0 0.0
2017-Sep-26 04:28N 33°28' W 117°41'0 0.0
2017-Sep-26 03:58N 33°28' W 117°41'0 0.0
2017-Sep-26 03:31N 33°28' W 117°41'0 0.0
2017-Sep-26 02:58N 33°28' W 117°41'0 0.0
2017-Sep-26 02:25N 33°28' W 117°41'0 0.0
2017-Sep-26 02:01N 33°28' W 117°41'0 0.0
2017-Sep-26 01:28N 33°28' W 117°41'0 0.0
2017-Sep-26 00:58N 33°28' W 117°41'0 0.0
2017-Sep-26 00:31N 33°28' W 117°41'0 0.0
2017-Sep-26 00:01N 33°28' W 117°41'0 0.0
2017-Sep-25 23:28N 33°28' W 117°41'0 0.0
2017-Sep-25 23:01N 33°28' W 117°41'0 0.0
2017-Sep-25 22:31N 33°28' W 117°41'0 0.0
2017-Sep-25 21:58N 33°28' W 117°41'0 0.0
2017-Sep-25 21:31N 33°28' W 117°41'0 0.2
2017-Sep-25 20:59N 33°28' W 117°42'1 1.3
2017-Sep-25 20:31N 33°27' W 117°42'4 7.5
2017-Sep-25 20:01N 33°28' W 117°46'4 7.0
2017-Sep-25 19:31N 33°30' W 117°50'4 7.0
2017-Sep-25 19:00N 33°33' W 117°52'3 6.1
2017-Sep-25 18:30N 33°36' W 117°53'  

Dump ship's entire track history